sensor_id;sensor_type;location;lat;lon;timestamp;P1;durP1;ratioP1;P2;durP2;ratioP2
1753;SDS011;58380;48.312;9.246;2023-05-10T07:36:00;2.15;;;0.70;;
1753;SDS011;58380;48.312;9.246;2023-05-10T07:38:25;1.83;;;0.50;;
1753;SDS011;58380;48.312;9.246;2023-05-10T07:40:50;5.45;;;0.65;;
1753;SDS011;58380;48.312;9.246;2023-05-10T07:43:16;0.60;;;0.40;;
1753;SDS011;58380;48.312;9.246;2023-05-10T07:45:41;2.23;;;0.40;;
1753;SDS011;58380;48.312;9.246;2023-05-10T07:48:07;4.23;;;0.40;;
1753;SDS011;58380;48.312;9.246;2023-05-10T07:50:32;0.35;;;0.35;;
1753;SDS011;58380;48.312;9.246;2023-05-10T07:52:58;1.50;;;0.43;;
1753;SDS011;58380;48.312;9.246;2023-05-10T07:55:24;0.80;;;0.33;;
1753;SDS011;58380;48.312;9.246;2023-05-10T07:57:49;1.30;;;0.37;;
1753;SDS011;58380;48.312;9.246;2023-05-10T08:00:18;0.50;;;0.43;;
1753;SDS011;58380;48.312;9.246;2023-05-10T08:02:47;0.70;;;0.40;;
1753;SDS011;58380;48.312;9.246;2023-05-10T08:05:12;2.92;;;0.40;;
1753;SDS011;58380;48.312;9.246;2023-05-10T08:07:38;0.30;;;0.30;;
1753;SDS011;58380;48.312;9.246;2023-05-10T08:10:04;1.92;;;0.57;;
1753;SDS011;58380;48.312;9.246;2023-05-10T08:14:57;2.92;;;0.50;;
1753;SDS011;58380;48.312;9.246;2023-05-10T08:17:22;0.85;;;0.32;;
1753;SDS011;58380;48.312;9.246;2023-05-10T08:19:47;0.90;;;0.53;;
1753;SDS011;58380;48.312;9.246;2023-05-10T08:22:13;0.90;;;0.50;;
1753;SDS011;58380;48.312;9.246;2023-05-10T08:24:38;2.93;;;0.70;;
1753;SDS011;58380;48.312;9.246;2023-05-10T08:27:04;3.60;;;0.60;;
1753;SDS011;58380;48.312;9.246;2023-05-10T08:29:30;1.27;;;0.30;;
1753;SDS011;58380;48.312;9.246;2023-05-10T08:31:56;0.52;;;0.32;;
1753;SDS011;58380;48.312;9.246;2023-05-10T08:34:21;0.67;;;0.40;;
1753;SDS011;58380;48.312;9.246;2023-05-10T08:36:47;0.83;;;0.37;;
1753;SDS011;58380;48.312;9.246;2023-05-10T08:39:12;0.73;;;0.47;;
1753;SDS011;58380;48.312;9.246;2023-05-10T08:41:38;0.47;;;0.38;;
1753;SDS011;58380;48.312;9.246;2023-05-10T08:44:08;0.82;;;0.35;;
1753;SDS011;58380;48.312;9.246;2023-05-10T08:46:34;3.17;;;0.30;;
1753;SDS011;58380;48.312;9.246;2023-05-10T08:49:07;2.13;;;0.50;;
1753;SDS011;58380;48.312;9.246;2023-05-10T08:51:35;0.95;;;0.40;;
1753;SDS011;58380;48.312;9.246;2023-05-10T08:54:09;1.50;;;0.52;;
1753;SDS011;58380;48.312;9.246;2023-05-10T08:56:35;1.15;;;0.50;;
1753;SDS011;58380;48.312;9.246;2023-05-10T09:01:27;0.88;;;0.43;;
1753;SDS011;58380;48.312;9.246;2023-05-10T09:03:55;1.73;;;0.38;;
1753;SDS011;58380;48.312;9.246;2023-05-10T09:06:21;0.40;;;0.40;;
1753;SDS011;58380;48.312;9.246;2023-05-10T09:08:46;0.50;;;0.40;;
1753;SDS011;58380;48.312;9.246;2023-05-10T09:11:12;0.75;;;0.40;;
1753;SDS011;58380;48.312;9.246;2023-05-10T09:13:38;2.47;;;0.32;;
1753;SDS011;58380;48.312;9.246;2023-05-10T09:16:04;1.83;;;0.40;;
1753;SDS011;58380;48.312;9.246;2023-05-10T09:18:30;2.45;;;0.50;;
1753;SDS011;58380;48.312;9.246;2023-05-10T09:20:55;1.10;;;0.60;;
1753;SDS011;58380;48.312;9.246;2023-05-10T09:23:21;2.90;;;0.40;;
1753;SDS011;58380;48.312;9.246;2023-05-10T09:25:46;0.90;;;0.50;;
1753;SDS011;58380;48.312;9.246;2023-05-10T09:28:12;0.70;;;0.30;;
1753;SDS011;58380;48.312;9.246;2023-05-10T09:30:38;2.80;;;0.50;;
1753;SDS011;58380;48.312;9.246;2023-05-10T09:33:04;2.40;;;0.38;;
1753;SDS011;58380;48.312;9.246;2023-05-10T09:35:30;2.33;;;0.38;;
1753;SDS011;58380;48.312;9.246;2023-05-10T09:37:58;0.20;;;0.20;;
1753;SDS011;58380;48.312;9.246;2023-05-10T09:40:30;1.38;;;0.32;;
1753;SDS011;58380;48.312;9.246;2023-05-10T09:45:26;5.20;;;0.40;;
1753;SDS011;58380;48.312;9.246;2023-05-10T09:47:57;0.85;;;0.32;;
1753;SDS011;58380;48.312;9.246;2023-05-10T09:50:25;1.20;;;0.22;;
1753;SDS011;58380;48.312;9.246;2023-05-10T09:52:52;0.40;;;0.20;;
1753;SDS011;58380;48.312;9.246;2023-05-10T09:55:20;5.57;;;0.60;;
1753;SDS011;58380;48.312;9.246;2023-05-10T09:58:06;0.35;;;0.30;;
1753;SDS011;58380;48.312;9.246;2023-05-10T10:00:36;0.45;;;0.40;;
1753;SDS011;58380;48.312;9.246;2023-05-10T10:03:03;0.30;;;0.20;;
1753;SDS011;58380;48.312;9.246;2023-05-10T10:05:30;0.20;;;0.20;;
1753;SDS011;58380;48.312;9.246;2023-05-10T10:07:58;1.17;;;0.30;;
1753;SDS011;58380;48.312;9.246;2023-05-10T10:10:26;1.17;;;0.30;;
1753;SDS011;58380;48.312;9.246;2023-05-10T10:12:52;1.25;;;0.20;;
1753;SDS011;58380;48.312;9.246;2023-05-10T10:15:20;0.98;;;0.30;;
1753;SDS011;58380;48.312;9.246;2023-05-10T10:17:47;0.40;;;0.40;;
1753;SDS011;58380;48.312;9.246;2023-05-10T10:20:14;1.60;;;0.50;;
1753;SDS011;58380;48.312;9.246;2023-05-10T10:25:07;1.33;;;0.63;;
1753;SDS011;58380;48.312;9.246;2023-05-10T10:27:36;0.60;;;0.50;;
1753;SDS011;58380;48.312;9.246;2023-05-10T10:30:20;0.95;;;0.50;;
1753;SDS011;58380;48.312;9.246;2023-05-10T10:36:05;2.00;;;0.32;;
1753;SDS011;58380;48.312;9.246;2023-05-10T10:52:14;1.27;;;0.50;;
1753;SDS011;58380;48.312;9.246;2023-05-10T10:54:59;1.35;;;0.50;;
1753;SDS011;58380;48.312;9.246;2023-05-10T10:57:28;0.95;;;0.57;;
1753;SDS011;58380;48.312;9.246;2023-05-10T11:00:17;2.53;;;0.50;;
1753;SDS011;58380;48.312;9.246;2023-05-10T11:02:44;0.77;;;0.47;;
1753;SDS011;58380;48.312;9.246;2023-05-10T11:08:14;4.57;;;0.50;;
1753;SDS011;58380;48.312;9.246;2023-05-10T11:10:52;2.88;;;0.60;;
1753;SDS011;58380;48.312;9.246;2023-05-10T11:16:18;0.47;;;0.30;;
1753;SDS011;58380;48.312;9.246;2023-05-10T11:19:02;1.30;;;0.50;;
1753;SDS011;58380;48.312;9.246;2023-05-10T11:21:32;0.93;;;0.50;;
1753;SDS011;58380;48.312;9.246;2023-05-10T11:24:12;2.65;;;0.57;;
1753;SDS011;58380;48.312;9.246;2023-05-10T11:26:41;1.30;;;0.40;;
1753;SDS011;58380;48.312;9.246;2023-05-10T11:29:08;0.95;;;0.50;;
1753;SDS011;58380;48.312;9.246;2023-05-10T11:31:34;1.17;;;0.50;;
1753;SDS011;58380;48.312;9.246;2023-05-10T11:34:00;0.50;;;0.38;;
1753;SDS011;58380;48.312;9.246;2023-05-10T11:36:27;1.17;;;0.60;;
1753;SDS011;58380;48.312;9.246;2023-05-10T11:38:57;0.90;;;0.43;;
1753;SDS011;58380;48.312;9.246;2023-05-10T11:41:23;2.35;;;0.57;;
1753;SDS011;58380;48.312;9.246;2023-05-10T11:43:50;2.55;;;0.45;;
1753;SDS011;58380;48.312;9.246;2023-05-10T11:46:20;3.45;;;0.50;;
1753;SDS011;58380;48.312;9.246;2023-05-10T11:48:49;2.95;;;0.40;;
1753;SDS011;58380;48.312;9.246;2023-05-10T11:51:21;5.55;;;0.80;;
1753;SDS011;58380;48.312;9.246;2023-05-10T11:53:49;2.47;;;0.40;;
1753;SDS011;58380;48.312;9.246;2023-05-10T11:56:18;4.55;;;0.55;;
1753;SDS011;58380;48.312;9.246;2023-05-10T11:58:44;2.38;;;0.90;;
1753;SDS011;58380;48.312;9.246;2023-05-10T12:01:09;2.35;;;0.68;;
1753;SDS011;58380;48.312;9.246;2023-05-10T12:03:36;4.25;;;0.40;;
1753;SDS011;58380;48.312;9.246;2023-05-10T12:06:02;0.90;;;0.50;;
1753;SDS011;58380;48.312;9.246;2023-05-10T12:08:29;1.45;;;0.40;;
1753;SDS011;58380;48.312;9.246;2023-05-10T12:11:08;1.17;;;0.43;;
1753;SDS011;58380;48.312;9.246;2023-05-10T12:13:37;1.77;;;0.60;;
1753;SDS011;58380;48.312;9.246;2023-05-10T12:16:21;1.50;;;0.40;;
1753;SDS011;58380;48.312;9.246;2023-05-10T12:18:56;2.13;;;0.35;;
1753;SDS011;58380;48.312;9.246;2023-05-10T12:21:23;6.03;;;0.80;;
1753;SDS011;58380;48.312;9.246;2023-05-10T12:23:52;4.50;;;0.57;;
1753;SDS011;58380;48.312;9.246;2023-05-10T12:26:23;1.90;;;0.40;;
1753;SDS011;58380;48.312;9.246;2023-05-10T12:28:52;2.28;;;0.52;;
1753;SDS011;58380;48.312;9.246;2023-05-10T12:31:19;4.22;;;0.40;;
1753;SDS011;58380;48.312;9.246;2023-05-10T12:33:44;0.97;;;0.57;;
1753;SDS011;58380;48.312;9.246;2023-05-10T12:36:13;0.85;;;0.47;;
1753;SDS011;58380;48.312;9.246;2023-05-10T12:38:44;1.30;;;0.57;;
1753;SDS011;58380;48.312;9.246;2023-05-10T12:41:14;1.48;;;0.55;;
1753;SDS011;58380;48.312;9.246;2023-05-10T12:43:42;3.40;;;0.80;;
1753;SDS011;58380;48.312;9.246;2023-05-10T12:46:13;3.45;;;0.57;;
1753;SDS011;58380;48.312;9.246;2023-05-10T12:48:42;2.20;;;0.52;;
1753;SDS011;58380;48.312;9.246;2023-05-10T12:51:11;3.83;;;0.80;;
1753;SDS011;58380;48.312;9.246;2023-05-10T12:53:41;3.45;;;0.80;;
1753;SDS011;58380;48.312;9.246;2023-05-10T12:56:06;2.50;;;0.50;;
1753;SDS011;58380;48.312;9.246;2023-05-10T12:58:32;2.65;;;0.80;;
1753;SDS011;58380;48.312;9.246;2023-05-10T13:00:58;1.43;;;0.53;;
1753;SDS011;58380;48.312;9.246;2023-05-10T13:03:25;2.70;;;0.80;;
1753;SDS011;58380;48.312;9.246;2023-05-10T13:05:50;4.23;;;0.70;;
1753;SDS011;58380;48.312;9.246;2023-05-10T13:08:16;2.53;;;0.60;;
1753;SDS011;58380;48.312;9.246;2023-05-10T13:10:41;2.50;;;0.60;;
1753;SDS011;58380;48.312;9.246;2023-05-10T13:13:06;1.00;;;0.40;;
1753;SDS011;58380;48.312;9.246;2023-05-10T13:17:59;2.60;;;0.50;;
1753;SDS011;58380;48.312;9.246;2023-05-10T13:20:25;3.42;;;0.50;;
1753;SDS011;58380;48.312;9.246;2023-05-10T13:22:51;1.75;;;0.68;;
1753;SDS011;58380;48.312;9.246;2023-05-10T13:25:17;2.60;;;0.70;;
1753;SDS011;58380;48.312;9.246;2023-05-10T13:27:42;2.77;;;0.60;;
1753;SDS011;58380;48.312;9.246;2023-05-10T13:30:08;3.50;;;0.80;;
1753;SDS011;58380;48.312;9.246;2023-05-10T13:32:35;2.40;;;0.80;;
1753;SDS011;58380;48.312;9.246;2023-05-10T13:37:28;1.83;;;0.52;;
1753;SDS011;58380;48.312;9.246;2023-05-10T13:42:19;2.03;;;0.60;;
1753;SDS011;58380;48.312;9.246;2023-05-10T13:44:46;4.82;;;1.13;;
1753;SDS011;58380;48.312;9.246;2023-05-10T13:47:11;1.53;;;0.70;;
1753;SDS011;58380;48.312;9.246;2023-05-10T13:49:37;3.37;;;0.70;;
1753;SDS011;58380;48.312;9.246;2023-05-10T13:52:02;2.87;;;0.93;;
1753;SDS011;58380;48.312;9.246;2023-05-10T13:54:31;3.65;;;0.63;;
1753;SDS011;58380;48.312;9.246;2023-05-10T13:57:00;2.83;;;0.80;;
1753;SDS011;58380;48.312;9.246;2023-05-10T13:59:26;0.82;;;0.57;;
1753;SDS011;58380;48.312;9.246;2023-05-10T14:01:51;4.90;;;1.23;;
1753;SDS011;58380;48.312;9.246;2023-05-10T14:04:17;2.95;;;1.08;;
1753;SDS011;58380;48.312;9.246;2023-05-10T14:06:42;1.90;;;0.57;;
1753;SDS011;58380;48.312;9.246;2023-05-10T14:09:08;3.87;;;1.03;;
1753;SDS011;58380;48.312;9.246;2023-05-10T14:11:33;2.47;;;0.70;;
1753;SDS011;58380;48.312;9.246;2023-05-10T14:13:59;2.30;;;0.80;;
1753;SDS011;58380;48.312;9.246;2023-05-10T14:16:24;4.80;;;1.00;;
1753;SDS011;58380;48.312;9.246;2023-05-10T14:18:50;1.33;;;0.70;;
1753;SDS011;58380;48.312;9.246;2023-05-10T14:21:15;1.85;;;0.70;;
1753;SDS011;58380;48.312;9.246;2023-05-10T14:23:40;1.83;;;0.70;;
1753;SDS011;58380;48.312;9.246;2023-05-10T14:26:06;5.03;;;0.90;;
1753;SDS011;58380;48.312;9.246;2023-05-10T14:28:31;2.55;;;0.82;;
1753;SDS011;58380;48.312;9.246;2023-05-10T14:30:57;5.57;;;0.85;;
1753;SDS011;58380;48.312;9.246;2023-05-10T14:35:49;2.30;;;0.77;;
1753;SDS011;58380;48.312;9.246;2023-05-10T14:38:14;2.22;;;0.82;;
1753;SDS011;58380;48.312;9.246;2023-05-10T14:40:40;1.88;;;0.70;;
1753;SDS011;58380;48.312;9.246;2023-05-10T14:43:07;3.03;;;0.80;;
1753;SDS011;58380;48.312;9.246;2023-05-10T14:45:32;2.97;;;0.60;;
1753;SDS011;58380;48.312;9.246;2023-05-10T14:47:58;3.63;;;0.60;;
1753;SDS011;58380;48.312;9.246;2023-05-10T14:50:24;4.70;;;0.70;;
1753;SDS011;58380;48.312;9.246;2023-05-10T14:52:49;2.83;;;0.90;;
1753;SDS011;58380;48.312;9.246;2023-05-10T14:55:15;2.75;;;0.68;;
1753;SDS011;58380;48.312;9.246;2023-05-10T14:57:40;2.97;;;0.55;;
1753;SDS011;58380;48.312;9.246;2023-05-10T15:00:06;8.10;;;1.20;;
1753;SDS011;58380;48.312;9.246;2023-05-10T15:04:58;3.33;;;0.65;;
1753;SDS011;58380;48.312;9.246;2023-05-10T15:07:23;1.40;;;0.70;;
1753;SDS011;58380;48.312;9.246;2023-05-10T15:09:49;5.80;;;1.00;;
1753;SDS011;58380;48.312;9.246;2023-05-10T15:12:16;4.28;;;0.85;;
1753;SDS011;58380;48.312;9.246;2023-05-10T15:14:42;2.22;;;0.70;;
1753;SDS011;58380;48.312;9.246;2023-05-10T15:17:08;3.88;;;1.02;;
1753;SDS011;58380;48.312;9.246;2023-05-10T15:19:33;1.83;;;0.87;;
1753;SDS011;58380;48.312;9.246;2023-05-10T15:21:58;1.63;;;0.70;;
1753;SDS011;58380;48.312;9.246;2023-05-10T15:24:24;2.78;;;0.80;;
1753;SDS011;58380;48.312;9.246;2023-05-10T15:26:50;1.90;;;0.60;;
1753;SDS011;58380;48.312;9.246;2023-05-10T15:29:15;2.93;;;0.90;;
1753;SDS011;58380;48.312;9.246;2023-05-10T15:31:45;1.60;;;0.80;;
1753;SDS011;58380;48.312;9.246;2023-05-10T15:34:12;3.45;;;0.98;;
1753;SDS011;58380;48.312;9.246;2023-05-10T15:39:04;2.10;;;0.80;;
1753;SDS011;58380;48.312;9.246;2023-05-10T15:41:30;3.42;;;0.80;;
1753;SDS011;58380;48.312;9.246;2023-05-10T15:43:55;4.43;;;0.93;;
1753;SDS011;58380;48.312;9.246;2023-05-10T15:48:47;2.78;;;0.63;;
1753;SDS011;58380;48.312;9.246;2023-05-10T15:51:12;4.27;;;0.80;;
1753;SDS011;58380;48.312;9.246;2023-05-10T15:53:38;4.20;;;0.93;;
1753;SDS011;58380;48.312;9.246;2023-05-10T15:56:03;1.48;;;0.52;;
1753;SDS011;58380;48.312;9.246;2023-05-10T15:58:29;6.38;;;0.80;;
1753;SDS011;58380;48.312;9.246;2023-05-10T16:00:55;1.45;;;0.60;;
1753;SDS011;58380;48.312;9.246;2023-05-10T16:03:21;2.30;;;1.02;;
1753;SDS011;58380;48.312;9.246;2023-05-10T16:05:47;2.55;;;0.38;;
1753;SDS011;58380;48.312;9.246;2023-05-10T16:08:13;0.38;;;0.30;;
1753;SDS011;58380;48.312;9.246;2023-05-10T16:10:38;2.63;;;0.80;;
1753;SDS011;58380;48.312;9.246;2023-05-10T16:13:04;4.75;;;1.38;;
1753;SDS011;58380;48.312;9.246;2023-05-10T16:15:30;1.45;;;0.38;;
1753;SDS011;58380;48.312;9.246;2023-05-10T16:17:55;1.40;;;0.50;;
1753;SDS011;58380;48.312;9.246;2023-05-10T16:22:47;0.70;;;0.40;;
1753;SDS011;58380;48.312;9.246;2023-05-10T16:25:12;0.90;;;0.40;;
1753;SDS011;58380;48.312;9.246;2023-05-10T16:27:38;0.65;;;0.40;;
1753;SDS011;58380;48.312;9.246;2023-05-10T16:30:03;0.63;;;0.50;;
1753;SDS011;58380;48.312;9.246;2023-05-10T16:32:29;0.80;;;0.50;;
1753;SDS011;58380;48.312;9.246;2023-05-10T16:34:55;0.70;;;0.50;;
1753;SDS011;58380;48.312;9.246;2023-05-10T16:37:20;4.77;;;1.10;;
1753;SDS011;58380;48.312;9.246;2023-05-10T16:39:46;1.03;;;0.60;;
1753;SDS011;58380;48.312;9.246;2023-05-10T16:42:11;2.50;;;0.77;;
1753;SDS011;58380;48.312;9.246;2023-05-10T16:44:37;4.43;;;0.57;;
1753;SDS011;58380;48.312;9.246;2023-05-10T16:47:03;0.88;;;0.47;;
1753;SDS011;58380;48.312;9.246;2023-05-10T16:49:28;0.77;;;0.43;;
1753;SDS011;58380;48.312;9.246;2023-05-10T16:51:53;1.30;;;0.60;;
1753;SDS011;58380;48.312;9.246;2023-05-10T16:54:19;0.87;;;0.40;;
1753;SDS011;58380;48.312;9.246;2023-05-10T16:56:45;3.97;;;0.47;;
1753;SDS011;58380;48.312;9.246;2023-05-10T16:59:11;0.88;;;0.40;;
1753;SDS011;58380;48.312;9.246;2023-05-10T17:01:37;1.55;;;0.60;;
1753;SDS011;58380;48.312;9.246;2023-05-10T17:04:02;1.52;;;0.70;;
1753;SDS011;58380;48.312;9.246;2023-05-10T17:06:28;1.15;;;0.40;;
1753;SDS011;58380;48.312;9.246;2023-05-10T17:08:53;3.50;;;1.00;;
1753;SDS011;58380;48.312;9.246;2023-05-10T17:11:19;1.47;;;0.60;;
1753;SDS011;58380;48.312;9.246;2023-05-10T17:13:45;3.30;;;0.40;;
1753;SDS011;58380;48.312;9.246;2023-05-10T17:16:11;0.85;;;0.50;;
1753;SDS011;58380;48.312;9.246;2023-05-10T17:18:37;3.55;;;0.43;;
1753;SDS011;58380;48.312;9.246;2023-05-10T17:21:02;4.22;;;0.50;;
1753;SDS011;58380;48.312;9.246;2023-05-10T17:23:28;1.17;;;0.50;;
1753;SDS011;58380;48.312;9.246;2023-05-10T17:25:54;1.50;;;0.40;;
1753;SDS011;58380;48.312;9.246;2023-05-10T17:28:19;2.03;;;0.50;;
1753;SDS011;58380;48.312;9.246;2023-05-10T17:30:45;2.77;;;0.63;;
1753;SDS011;58380;48.312;9.246;2023-05-10T17:33:10;2.00;;;0.77;;
1753;SDS011;58380;48.312;9.246;2023-05-10T17:35:36;0.40;;;0.40;;
1753;SDS011;58380;48.312;9.246;2023-05-10T17:38:01;3.75;;;0.70;;
1753;SDS011;58380;48.312;9.246;2023-05-10T17:40:26;4.73;;;0.50;;
1753;SDS011;58380;48.312;9.246;2023-05-10T17:42:52;1.27;;;0.60;;
1753;SDS011;58380;48.312;9.246;2023-05-10T17:45:17;2.00;;;0.57;;
1753;SDS011;58380;48.312;9.246;2023-05-10T17:47:43;0.82;;;0.43;;
1753;SDS011;58380;48.312;9.246;2023-05-10T17:50:08;2.33;;;0.60;;
1753;SDS011;58380;48.312;9.246;2023-05-10T17:52:34;0.85;;;0.50;;
1753;SDS011;58380;48.312;9.246;2023-05-10T17:55:00;1.87;;;0.63;;
1753;SDS011;58380;48.312;9.246;2023-05-10T17:59:52;1.58;;;0.68;;
1753;SDS011;58380;48.312;9.246;2023-05-10T18:02:17;1.53;;;0.50;;
1753;SDS011;58380;48.312;9.246;2023-05-10T18:04:42;2.13;;;0.60;;
1753;SDS011;58380;48.312;9.246;2023-05-10T18:07:08;2.70;;;0.73;;
1753;SDS011;58380;48.312;9.246;2023-05-10T18:09:33;2.63;;;1.08;;
1753;SDS011;58380;48.312;9.246;2023-05-10T18:12:02;1.15;;;0.60;;
1753;SDS011;58380;48.312;9.246;2023-05-10T18:14:29;3.83;;;1.23;;
1753;SDS011;58380;48.312;9.246;2023-05-10T18:16:55;2.72;;;1.00;;
1753;SDS011;58380;48.312;9.246;2023-05-10T18:19:21;1.13;;;0.63;;
1753;SDS011;58380;48.312;9.246;2023-05-10T18:21:48;1.65;;;0.80;;
1753;SDS011;58380;48.312;9.246;2023-05-10T18:24:14;2.05;;;0.63;;
1753;SDS011;58380;48.312;9.246;2023-05-10T18:26:40;2.83;;;0.40;;
1753;SDS011;58380;48.312;9.246;2023-05-10T18:29:07;1.90;;;0.80;;
1753;SDS011;58380;48.312;9.246;2023-05-10T18:31:32;3.47;;;0.57;;
1753;SDS011;58380;48.312;9.246;2023-05-10T18:33:58;0.30;;;0.20;;
1753;SDS011;58380;48.312;9.246;2023-05-10T18:36:23;1.23;;;0.60;;
1753;SDS011;58380;48.312;9.246;2023-05-10T18:38:49;1.05;;;0.60;;
1753;SDS011;58380;48.312;9.246;2023-05-10T18:41:15;0.63;;;0.20;;
1753;SDS011;58380;48.312;9.246;2023-05-10T18:43:40;0.55;;;0.43;;
1753;SDS011;58380;48.312;9.246;2023-05-10T18:46:07;2.45;;;1.02;;
1753;SDS011;58380;48.312;9.246;2023-05-10T18:48:32;3.55;;;0.93;;
1753;SDS011;58380;48.312;9.246;2023-05-10T18:50:58;5.32;;;1.50;;
1753;SDS011;58380;48.312;9.246;2023-05-10T18:53:23;0.77;;;0.40;;
1753;SDS011;58380;48.312;9.246;2023-05-10T18:55:55;1.70;;;0.70;;
1753;SDS011;58380;48.312;9.246;2023-05-10T18:58:22;1.02;;;0.55;;
1753;SDS011;58380;48.312;9.246;2023-05-10T19:00:50;2.10;;;0.93;;
1753;SDS011;58380;48.312;9.246;2023-05-10T19:03:17;4.40;;;2.08;;
1753;SDS011;58380;48.312;9.246;2023-05-10T19:05:42;4.17;;;2.00;;
1753;SDS011;58380;48.312;9.246;2023-05-10T19:08:08;2.67;;;1.57;;
1753;SDS011;58380;48.312;9.246;2023-05-10T19:10:33;12.30;;;3.92;;
1753;SDS011;58380;48.312;9.246;2023-05-10T19:12:58;6.23;;;3.27;;
1753;SDS011;58380;48.312;9.246;2023-05-10T19:15:24;4.30;;;2.37;;
1753;SDS011;58380;48.312;9.246;2023-05-10T19:17:49;5.43;;;2.87;;
1753;SDS011;58380;48.312;9.246;2023-05-10T19:20:15;6.47;;;3.40;;
1753;SDS011;58380;48.312;9.246;2023-05-10T19:22:40;5.23;;;2.10;;
1753;SDS011;58380;48.312;9.246;2023-05-10T19:25:05;2.60;;;1.97;;
1753;SDS011;58380;48.312;9.246;2023-05-10T19:27:31;2.70;;;1.50;;
1753;SDS011;58380;48.312;9.246;2023-05-10T19:29:57;1.55;;;1.02;;
1753;SDS011;58380;48.312;9.246;2023-05-10T19:32:23;2.77;;;0.80;;
1753;SDS011;58380;48.312;9.246;2023-05-10T19:34:48;1.00;;;0.60;;
1753;SDS011;58380;48.312;9.246;2023-05-10T19:37:14;1.07;;;0.63;;
1753;SDS011;58380;48.312;9.246;2023-05-10T19:39:39;2.92;;;0.57;;
1753;SDS011;58380;48.312;9.246;2023-05-10T19:42:05;1.23;;;0.50;;
1753;SDS011;58380;48.312;9.246;2023-05-10T19:44:30;2.38;;;0.70;;
1753;SDS011;58380;48.312;9.246;2023-05-10T19:46:56;3.00;;;0.82;;
1753;SDS011;58380;48.312;9.246;2023-05-10T19:49:22;4.72;;;1.75;;
1753;SDS011;58380;48.312;9.246;2023-05-10T19:51:47;2.33;;;1.10;;
1753;SDS011;58380;48.312;9.246;2023-05-10T19:54:13;3.73;;;1.33;;
1753;SDS011;58380;48.312;9.246;2023-05-10T19:56:38;4.13;;;1.60;;
1753;SDS011;58380;48.312;9.246;2023-05-10T19:59:03;4.30;;;1.50;;
1753;SDS011;58380;48.312;9.246;2023-05-10T20:01:30;2.20;;;0.98;;
1753;SDS011;58380;48.312;9.246;2023-05-10T20:03:56;1.83;;;0.50;;
1753;SDS011;58380;48.312;9.246;2023-05-10T20:06:22;1.90;;;0.50;;
1753;SDS011;58380;48.312;9.246;2023-05-10T20:08:47;0.97;;;0.47;;
1753;SDS011;58380;48.312;9.246;2023-05-10T20:11:12;1.07;;;0.40;;
1753;SDS011;58380;48.312;9.246;2023-05-10T20:13:38;0.37;;;0.37;;
1753;SDS011;58380;48.312;9.246;2023-05-10T20:16:03;1.67;;;0.50;;
1753;SDS011;58380;48.312;9.246;2023-05-10T20:18:30;0.45;;;0.38;;
1753;SDS011;58380;48.312;9.246;2023-05-10T20:20:57;0.70;;;0.38;;
1753;SDS011;58380;48.312;9.246;2023-05-10T20:23:24;2.42;;;0.60;;
1753;SDS011;58380;48.312;9.246;2023-05-10T20:25:50;1.52;;;0.57;;
1753;SDS011;58380;48.312;9.246;2023-05-10T20:28:19;1.10;;;0.47;;
1753;SDS011;58380;48.312;9.246;2023-05-10T20:30:47;1.42;;;0.60;;
1753;SDS011;58380;48.312;9.246;2023-05-10T20:33:14;2.60;;;0.57;;
1753;SDS011;58380;48.312;9.246;2023-05-10T20:35:40;0.55;;;0.50;;
1753;SDS011;58380;48.312;9.246;2023-05-10T20:38:06;1.15;;;0.40;;
1753;SDS011;58380;48.312;9.246;2023-05-10T20:40:31;1.30;;;0.43;;
1753;SDS011;58380;48.312;9.246;2023-05-10T20:42:57;0.30;;;0.30;;
1753;SDS011;58380;48.312;9.246;2023-05-10T20:45:23;1.48;;;0.77;;
1753;SDS011;58380;48.312;9.246;2023-05-10T20:47:48;2.67;;;1.17;;
1753;SDS011;58380;48.312;9.246;2023-05-10T20:50:14;1.85;;;0.40;;
1753;SDS011;58380;48.312;9.246;2023-05-10T20:52:39;2.20;;;0.90;;
1753;SDS011;58380;48.312;9.246;2023-05-10T20:55:05;1.43;;;0.70;;
1753;SDS011;58380;48.312;9.246;2023-05-10T20:57:31;3.97;;;1.00;;
1753;SDS011;58380;48.312;9.246;2023-05-10T20:59:56;4.17;;;1.40;;
1753;SDS011;58380;48.312;9.246;2023-05-10T21:02:22;3.87;;;1.70;;
1753;SDS011;58380;48.312;9.246;2023-05-10T21:04:47;6.97;;;1.60;;
1753;SDS011;58380;48.312;9.246;2023-05-10T21:07:13;3.83;;;1.30;;
1753;SDS011;58380;48.312;9.246;2023-05-10T21:09:38;6.93;;;2.83;;
1753;SDS011;58380;48.312;9.246;2023-05-10T21:12:03;7.47;;;2.13;;
1753;SDS011;58380;48.312;9.246;2023-05-10T21:14:29;4.05;;;1.73;;
1753;SDS011;58380;48.312;9.246;2023-05-10T21:16:55;0.98;;;0.60;;
1753;SDS011;58380;48.312;9.246;2023-05-10T21:19:20;0.60;;;0.30;;
1753;SDS011;58380;48.312;9.246;2023-05-10T21:21:46;0.35;;;0.30;;
1753;SDS011;58380;48.312;9.246;2023-05-10T21:24:12;0.73;;;0.43;;
1753;SDS011;58380;48.312;9.246;2023-05-10T21:26:38;2.05;;;0.98;;
